TimeMST,TemperatureF,Dew PointF,Humidity,Sea Level PressureIn,VisibilityMPH,Wind Direction,Wind SpeedMPH,Gust SpeedMPH,PrecipitationIn,Events,Conditions,WindDirDegrees,DateUTC
12:53 AM,24.1,14.0,65,30.16,10.0,WSW,9.2,-,N/A,,Clear,250,2013-01-09 07:53:00
1:53 AM,25.0,15.1,66,30.16,10.0,WSW,9.2,-,N/A,,Clear,250,2013-01-09 08:53:00
2:53 AM,27.0,17.1,66,30.16,10.0,WSW,8.1,-,N/A,,Clear,240,2013-01-09 09:53:00
3:53 AM,27.0,16.0,63,30.17,10.0,WSW,8.1,-,N/A,,Clear,250,2013-01-09 10:53:00
4:53 AM,30.0,17.1,59,30.15,10.0,WSW,11.5,-,N/A,,Clear,250,2013-01-09 11:53:00
5:53 AM,28.9,17.1,61,30.16,10.0,WSW,5.8,-,N/A,,Clear,240,2013-01-09 12:53:00
6:53 AM,30.0,17.1,59,30.18,10.0,WSW,11.5,18.4,N/A,,Clear,250,2013-01-09 13:53:00
7:53 AM,30.0,18.0,61,30.21,10.0,WSW,11.5,-,N/A,,Clear,250,2013-01-09 14:53:00
8:53 AM,35.1,19.0,52,30.18,10.0,West,12.7,24.2,N/A,,Clear,260,2013-01-09 15:53:00
9:53 AM,39.9,19.0,43,30.16,10.0,West,17.3,23.0,N/A,,Clear,270,2013-01-09 16:53:00
10:53 AM,43.0,19.9,40,30.14,10.0,WSW,5.8,-,N/A,,Clear,240,2013-01-09 17:53:00
11:53 AM,44.1,19.9,38,30.12,10.0,West,11.5,19.6,N/A,,Clear,260,2013-01-09 18:53:00
12:53 PM,43.0,19.9,40,30.11,10.0,West,10.4,20.7,N/A,,Clear,260,2013-01-09 19:53:00
1:53 PM,44.1,19.9,38,30.11,10.0,West,15.0,20.7,N/A,,Clear,270,2013-01-09 20:53:00
2:53 PM,44.1,19.9,38,30.09,10.0,SW,9.2,-,N/A,,Clear,230,2013-01-09 21:53:00
3:53 PM,42.1,21.0,43,30.09,10.0,SW,8.1,17.3,N/A,,Clear,220,2013-01-09 22:53:00
4:53 PM,37.9,21.0,51,30.06,10.0,SW,4.6,-,N/A,,Clear,230,2013-01-09 23:53:00
5:53 PM,35.1,19.9,54,30.07,10.0,SSW,4.6,-,N/A,,Clear,210,2013-01-10 00:53:00
6:53 PM,37.9,19.0,47,30.03,10.0,WSW,5.8,-,N/A,,Clear,240,2013-01-10 01:53:00
7:53 PM,36.0,18.0,48,30.02,10.0,SW,6.9,-,N/A,,Clear,230,2013-01-10 02:53:00
8:53 PM,37.9,16.0,41,29.97,10.0,WSW,6.9,-,N/A,,Clear,240,2013-01-10 03:53:00
9:53 PM,39.9,14.0,35,29.93,10.0,WSW,9.2,-,N/A,,Clear,240,2013-01-10 04:53:00
10:53 PM,36.0,14.0,41,29.91,10.0,SW,6.9,-,N/A,,Clear,230,2013-01-10 05:53:00
11:53 PM,36.0,14.0,41,29.88,10.0,SW,6.9,-,N/A,,Clear,230,2013-01-10 06:53:00